Njurba, Russia
Current Conditions -  °F | °C
As of 1:00 AM on Tuesday 25 Nov 2014 (Local Time) from UEEE Reporting Station
Clear Clear  
Wind Chill: -25°   Ceiling: Unl
Heat Index: -13°   Visibility: 6mi
Dew Point: -18°   Wind: 4mph
Humidity: 77%   Direction: 350°N
Pressure: 29.74"   Gusts: NA
Location:  63.28°N, 118.33°E
Report Text: UEEE 241600Z 35002MPS CAVOK M25/M28 Q1007 NOSIG RMK QFE74623490150
Loading
Personal Weather Stations






























Interactive Weather Map New forecast layout! Learn more

10-Day Weather Forecast

Advertisements
Track Severe Weather on mobile